Terminal Aerodrome Forecast
Issued by NWS

Current Version | Previous Version | Text Only | Print | Product List | Glossary On
Versions: 1 2 3 4 5 6 7 8 9 10 11 12
000
FTUS41 KLWX 041120
TAFMTN
TAF
KMTN 041120Z 0412/0512 02006KT P6SM SCT150
     FM041400 04006KT P6SM BKN050
     FM041600 07006KT P6SM VCTS BKN050CB
     FM042200 10010G19KT P6SM BKN050
     FM050600 06009G19KT P6SM BKN070
     FM050900 05009KT P6SM SCT015 BKN020=

USA.gov is the U.S. government's official web portal to all federal, state and local government web resources and services.